Latest Weather Observations for Williamtown

IDN60901

Issued at 9:41 am EST Saturday 1 October 2016 (issued every 10 minutes, with the page automatically refreshed every 10 minutes)

About weather observations | Map of Sydney area stations | Latest observations for Sydney area | Other Formats
Station Details ID: 061078 Name: WILLIAMTOWN RAAF Lat: -32.79 Lon: 151.84 Height: 9.0 m
Data from the previous 72 hours. | See also: Recent months at Williamtown
Date/Time
EST
Temp
°C
App
Temp
°C
Dew
Point
°C
Rel
Hum
%
Delta-T
°C
Wind Press
QNH
hPa
Press
MSL
hPa
Rain since
9am
mm
Dir  Spd
km/h
Gust
km/h
Spd
kts
Gust
kts
01/09:30am 19.3 11.1 8.3 49 5.7 WNW 41 56 22 30 1008.2 1008.2 0.0
01/09:00am 18.3 9.3 7.1 48 5.6 WNW 44 61 24 33 1008.3 1008.3 0.0
01/08:51am 18.2 9.3 7.0 48 5.6 NW 43 61 23 33 1008.1 1008.1 0.0
01/08:30am 17.8 8.9 7.0 49 5.4 WNW 43 56 23 30 1008.0 1008.0 0.0
01/08:00am 17.3 8.3 6.5 49 5.3 NW 43 56 23 30 1007.6 1007.6 0.0
01/07:47am 16.9 8.2 6.1 49 5.3 WNW 41 61 22 33 1007.5 1007.5 0.0
01/07:30am 16.6 8.3 6.1 50 5.1 WNW 39 56 21 30 1007.5 1007.5 0.0
01/07:00am 15.9 8.4 6.1 52 4.8 WNW 35 48 19 26 1007.1 1007.1 0.0
01/06:30am 14.9 8.7 6.0 55 4.3 WNW 28 39 15 21 1006.8 1006.8 0.0
01/06:00am 14.3 7.0 5.4 55 4.2 WNW 33 43 18 23 1006.3 1006.3 0.0
01/05:30am 14.2 6.4 5.0 54 4.3 WNW 35 46 19 25 1005.8 1005.8 0.0
01/05:00am 14.2 6.4 5.0 54 4.3 WNW 35 44 19 24 1005.2 1005.2 0.0
01/04:30am 13.9 7.0 4.8 54 4.2 WNW 30 41 16 22 1004.6 1004.6 0.0
01/04:00am 13.9 8.2 4.8 54 4.2 WNW 24 35 13 19 1004.3 1004.3 0.0
01/03:30am 13.7 8.7 4.6 54 4.2 WNW 20 28 11 15 1003.8 1003.8 0.0
01/03:00am 13.6 6.1 4.2 53 4.3 WNW 33 43 18 23 1003.4 1003.4 0.0
01/02:30am 13.7 5.4 4.3 53 4.3 WNW 37 46 20 25 1003.0 1003.0 0.0
01/02:00am 14.4 4.7 3.8 49 4.9 WNW 44 63 24 34 1002.0 1002.0 0.0
01/01:36am 14.6 6.2 3.7 48 5.0 WNW 37 56 20 30 1002.3 1002.3 0.0
01/01:30am 14.7 6.7 3.8 48 5.0 WNW 35 52 19 28 1002.4 1002.4 0.0
01/01:12am 14.9 6.1 3.7 47 5.1 WNW 39 57 21 31 1002.4 1002.4 0.0
01/01:00am 14.9 4.7 3.4 46 5.2 NW 46 57 25 31 1002.3 1002.3 0.0
01/12:30am 14.9 5.3 3.4 46 5.2 WNW 43 52 23 28 1002.8 1002.8 0.0
01/12:00am 14.8 5.2 3.6 47 5.1 WNW 43 63 23 34 1003.2 1003.2 0.0
 
Date/Time
EST
Temp
°C
App
Temp
°C
Dew
Point
°C
Rel
Hum
%
Delta-T
°C
Wind Press
QNH
hPa
Press
MSL
hPa
Rain since
9am
mm
Dir  Spd
km/h
Gust
km/h
Spd
kts
Gust
kts
30/11:32pm 14.9 6.1 3.4 46 5.2 WNW 39 57 21 31 1003.2 1003.2 0.0
30/11:30pm 14.6 6.2 3.7 48 5.0 WNW 37 46 20 25 1003.4 1003.4 0.0
30/11:03pm 14.6 6.2 3.7 48 5.0 WNW 37 56 20 30 1003.7 1003.7 0.0
30/11:00pm 14.4 6.0 3.8 49 4.9 WNW 37 54 20 29 1003.7 1003.7 0.0
30/10:50pm 14.5 6.1 3.9 49 4.8 WNW 37 57 20 31 1003.7 1003.7 0.0
30/10:30pm 13.9 6.4 4.5 53 4.3 WNW 33 48 18 26 1003.9 1003.9 0.0
30/10:00pm 13.9 6.8 5.3 56 4.0 WNW 32 37 17 20 1003.9 1003.9 0.0
30/09:32pm 14.3 6.7 5.9 57 4.0 WNW 35 54 19 29 1004.1 1004.1 0.0
30/09:30pm 14.4 6.5 6.0 57 4.0 WNW 37 54 20 29 1004.2 1004.2 0.0
30/09:00pm 14.4 6.5 6.3 58 3.9 WNW 37 54 20 29 1003.9 1003.9 0.0
30/08:37pm 14.4 7.3 6.5 59 3.8 WNW 33 52 18 28 1003.9 1003.9 0.0
30/08:30pm 14.0 7.0 6.8 62 3.5 WNW 33 48 18 26 1004.1 1004.1 0.0
30/08:09pm 14.1 7.1 6.9 62 3.5 WNW 33 52 18 28 1003.9 1003.9 0.0
30/08:00pm 13.9 7.2 7.2 64 3.3 WNW 32 41 17 22 1003.9 1003.9 0.0
30/07:37pm 13.8 7.0 7.1 64 3.3 WNW 32 50 17 27 1003.2 1003.2 0.0
30/07:30pm 13.9 7.2 7.2 64 3.3 WNW 32 48 17 26 1003.1 1003.1 0.0
30/07:26pm 14.1 7.8 7.4 64 3.3 WNW 30 48 16 26 1003.1 1003.1 0.0
30/07:00pm 14.0 7.1 7.1 63 3.4 NW 33 41 18 22 1002.8 1002.8 0.0
30/06:30pm 14.3 9.1 7.1 62 3.5 WNW 24 41 13 22 1002.7 1002.7 0.0
30/06:00pm 13.7 9.8 7.2 65 3.2 NW 17 24 9 13 1002.2 1002.2 0.0
30/05:30pm 14.5 8.1 7.1 61 3.6 WNW 30 41 16 22 1002.0 1002.0 0.0
30/05:20pm 14.9 8.1 7.0 59 3.9 WNW 32 50 17 27 1001.8 1001.8 0.0
30/05:00pm 15.3 7.9 6.6 56 4.3 WNW 35 48 19 26 1001.5 1001.5 0.0
30/04:30pm 15.7 8.2 6.4 54 4.5 WNW 35 50 19 27 1001.5 1001.5 0.0
30/04:00pm 15.6 6.5 6.1 53 4.6 WNW 43 57 23 31 1001.3 1001.3 0.0
30/03:30pm 16.2 6.6 6.1 51 4.9 WNW 46 63 25 34 1000.8 1000.8 0.0
30/03:00pm 16.4 7.5 6.8 53 4.8 WNW 43 61 23 33 1000.5 1000.5 0.0
30/02:51pm 15.8 8.0 6.8 55 4.4 WNW 37 61 20 33 1000.3 1000.3 0.0
30/02:30pm 16.2 9.3 6.6 53 4.7 WNW 32 48 17 26 1000.2 1000.2 0.0
30/02:00pm 17.3 9.2 6.8 50 5.2 WNW 39 54 21 29 1000.3 1000.3 0.0
30/01:30pm 18.6 9.8 3.6 37 7.0 NW 39 59 21 32 1000.1 1000.1 0.0
30/01:24pm 18.1 10.5 3.9 39 6.7 NW 33 59 18 32 1000.1 1000.1 0.0
30/01:00pm 16.8 7.5 5.1 46 5.6 WNW 43 57 23 31 1000.6 1000.6 0.0
30/12:33pm 17.8 9.3 3.3 38 6.7 NW 37 56 20 30 1000.2 1000.2 0.0
30/12:30pm 18.0 9.1 3.1 37 6.9 NW 39 56 21 30 1000.1 1000.1 0.0
30/12:13pm 18.3 10.1 2.6 35 7.2 NW 35 54 19 29 1000.1 1000.1 0.0
30/12:00pm 18.2 9.6 2.5 35 7.2 NW 37 52 20 28 1000.1 1000.1 0.0
30/11:30am 19.4 10.7 2.3 32 7.9 NW 37 54 20 29 1000.1 1000.1 0.0
30/11:13am 18.4 10.8 3.1 36 7.1 NW 32 50 17 27 1000.3 1000.3 0.0
30/11:00am 18.3 10.4 2.2 34 7.4 NW 33 44 18 24 1000.4 1000.4 0.0
30/10:39am 18.5 10.7 2.8 35 7.2 NW 33 59 18 32 1000.5 1000.5 0.0
30/10:30am 17.8 9.9 2.5 36 7.0 NW 33 50 18 27 1000.6 1000.6 0.0
30/10:05am 17.6 8.8 1.2 33 7.3 NW 37 56 20 30 1000.7 1000.7 0.0
30/10:00am 18.2 9.7 2.9 36 7.1 NW 37 54 20 29 1000.9 1000.9 0.0
30/09:30am 17.5 9.9 2.7 37 6.8 NNW 32 52 17 28 1000.9 1000.9 0.0
30/09:00am 17.1 9.3 1.9 36 6.8 NW 32 48 17 26 1001.0 1001.0 6.2
30/08:30am 16.8 9.4 1.7 36 6.7 NNW 30 50 16 27 1001.0 1001.0 6.2
30/08:04am 16.2 8.4 1.9 38 6.4 NNW 32 50 17 27 1000.7 1000.7 6.2
30/08:00am 16.0 8.2 1.7 38 6.4 NNW 32 44 17 24 1000.7 1000.7 6.2
30/07:30am 15.7 9.1 1.8 39 6.1 NNW 26 37 14 20 1001.2 1001.2 6.2
30/07:00am 15.0 8.0 2.2 42 5.7 NNW 28 37 15 20 1001.1 1001.1 6.2
30/06:30am 14.1 7.9 2.4 45 5.2 NW 24 37 13 20 1000.8 1000.8 6.2
30/06:00am 12.3 9.0 2.5 51 4.3 N 9 13 5 7 1000.7 1000.7 6.2
30/05:30am 10.4 7.1 2.7 59 3.3 NNW 9 13 5 7 1000.4 1000.4 6.2
30/05:00am 10.9 7.5 1.7 53 3.9 NNW 9 13 5 7 1000.3 1000.3 6.2
30/04:30am 10.0 7.7 2.6 60 3.2 WSW 4 9 2 5 1000.1 1000.1 6.2
30/04:00am 10.7 8.0 2.5 57 3.5 W 6 13 3 7 1000.1 1000.1 6.2
30/03:30am 11.1 5.0 2.9 57 3.6 WNW 24 30 13 16 999.8 999.8 6.2
30/03:00am 10.3 5.6 3.3 62 3.1 W 17 22 9 12 999.9 999.9 6.2
30/02:30am 11.0 8.1 2.8 57 3.5 W 7 9 4 5 1000.3 1000.3 6.2
30/02:00am 12.4 7.7 3.1 53 4.1 W 17 24 9 13 1000.4 1000.4 6.2
30/01:30am 13.2 7.5 2.7 49 4.6 WNW 22 32 12 17 1000.2 1000.2 6.2
30/01:00am 14.2 6.0 2.5 45 5.2 NW 35 46 19 25 999.8 999.8 6.2
30/12:30am 14.7 5.7 2.3 43 5.5 NW 39 56 21 30 999.9 999.9 6.2
30/12:00am 15.2 5.5 3.0 44 5.5 NW 43 61 23 33 1000.2 1000.2 6.2
 
Date/Time
EST
Temp
°C
App
Temp
°C
Dew
Point
°C
Rel
Hum
%
Delta-T
°C
Wind Press
QNH
hPa
Press
MSL
hPa
Rain since
9am
mm
Dir  Spd
km/h
Gust
km/h
Spd
kts
Gust
kts
29/11:33pm 15.1 7.1 3.9 47 5.1 NW 35 54 19 29 1000.4 1000.4 6.2
29/11:30pm 15.2 7.2 3.7 46 5.3 NW 35 43 19 23 1000.4 1000.4 6.2
29/11:00pm 15.1 7.3 4.8 50 4.9 NW 35 54 19 29 1000.4 1000.4 6.2
29/10:55pm 15.5 8.0 4.6 48 5.1 NW 33 54 18 29 1000.3 1000.3 6.2
29/10:30pm 14.8 7.8 5.9 55 4.3 NW 32 43 17 23 1000.0 1000.0 6.2
29/10:00pm 14.6 9.8 7.4 62 3.6 NW 22 30 12 16 999.8 999.8 6.2
29/09:30pm 15.3 9.7 7.1 58 4.0 NW 26 35 14 19 999.5 999.5 6.2
29/09:00pm 15.4 8.7 7.4 59 4.0 NW 32 41 17 22 999.0 999.0 6.2
29/08:30pm 15.2 8.5 8.2 63 3.5 NW 33 44 18 24 998.6 998.6 6.2
29/08:01pm 15.4 8.1 8.6 64 3.5 NW 37 56 20 30 999.0 999.0 6.2
29/08:00pm 15.4 8.1 8.6 64 3.5 NW 37 48 20 26 998.9 998.9 6.2
29/07:45pm 15.4 8.8 8.6 64 3.5 NW 33 54 18 29 998.8 998.8 6.2
29/07:30pm 14.9 7.4 9.3 69 2.9 NW 39 52 21 28 998.8 998.8 6.2
29/07:00pm 13.4 11.4 11.6 89 1.0 NNW 13 15 7 8 998.2 998.2 6.2
29/06:30pm 14.0 12.1 11.7 86 1.2 NNE 13 15 7 8 997.7 997.7 6.2
29/06:00pm 13.9 11.4 11.1 83 1.5 NW 15 17 8 9 997.3 997.3 6.2
29/05:30pm 15.2 11.5 11.4 78 2.0 WNW 22 35 12 19 996.7 996.7 6.0
29/05:00pm 15.0 11.2 11.2 78 2.0 WNW 22 30 12 16 996.9 996.9 6.0
29/04:30pm 14.1 11.1 11.8 86 1.2 NW 19 28 10 15 997.2 997.2 6.0
29/04:13pm 14.0 10.2 11.3 84 1.4 WNW 22 32 12 17 997.5 997.5 4.0
29/04:00pm 14.9 9.8 11.9 82 1.6 WNW 30 39 16 21 997.3 997.3 3.4
29/03:45pm 16.3 12.4 13.4 83 1.6 NW 26 39 14 21 997.5 997.5 3.2
29/03:30pm 17.8 14.8 14.7 82 1.8 W 24 39 13 21 996.5 996.5 2.0
29/03:16pm 18.3 17.8 15.0 81 1.9 NW 11 15 6 8 995.7 995.7 2.0
29/03:00pm 19.5 19.5 15.2 76 2.5 NNW 9 13 5 7 996.1 996.1 1.6
29/02:30pm 21.0 20.5 12.7 59 4.7 NNW 7 9 4 5 996.2 996.2 0.0
29/02:00pm 20.8 20.3 12.5 59 4.7 NW 7 11 4 6 996.2 996.2 0.0
29/01:30pm 20.8 19.2 11.7 56 5.1 N 11 13 6 7 997.1 997.1 0.0
29/01:00pm 20.6 19.0 11.5 56 5.1 NNW 11 13 6 7 996.8 996.8 0.0
29/12:30pm 21.3 19.5 12.2 56 5.1 N 13 20 7 11 997.7 997.7 0.0
29/12:00pm 18.2 16.7 12.0 67 3.4 NNW 11 13 6 7 998.7 998.7 0.0
29/11:30am 18.0 15.9 11.3 65 3.6 N 13 19 7 10 998.8 998.8 0.0
29/11:00am 17.9 15.0 11.0 64 3.8 NNE 17 24 9 13 999.2 999.2 0.0
29/10:30am 17.0 13.8 10.1 64 3.6 NNE 17 26 9 14 999.8 999.8 0.0
29/10:00am 16.7 13.7 10.8 68 3.2 NNE 17 22 9 12 1000.4 1000.4 0.0
29/09:30am 16.4 12.7 10.0 66 3.4 NNE 20 28 11 15 1000.7 1000.7 0.0
29/09:00am 15.3 12.6 10.3 72 2.6 NNE 15 30 8 16 1001.1 1001.1 0.0
29/08:30am 14.8 11.3 10.2 74 2.4 NNE 19 30 10 16 1001.1 1001.1 0.0
29/08:00am 14.0 10.4 9.8 76 2.2 NNE 19 28 10 15 1001.6 1001.6 0.0
29/07:30am 14.4 11.9 9.8 74 2.4 NNE 13 20 7 11 1001.9 1001.9 0.0
29/07:00am 14.3 10.8 8.9 70 2.8 NE 17 26 9 14 1002.0 1002.0 0.0
29/06:30am 13.8 10.7 9.0 73 2.4 NNE 15 24 8 13 1002.7 1002.7 0.0
29/06:00am 13.5 10.1 9.0 74 2.3 NNE 17 26 9 14 1002.8 1002.8 0.0
29/05:30am 12.6 9.7 9.6 82 1.5 NNE 15 19 8 10 1003.2 1003.2 0.0
29/05:00am 12.7 9.8 9.5 81 1.6 NNE 15 19 8 10 1003.7 1003.7 0.0
29/04:30am 13.4 10.9 9.6 78 1.9 NNE 13 17 7 9 1003.7 1003.7 0.0
29/04:00am 13.7 11.6 9.7 77 2.1 NNE 11 15 6 8 1004.3 1004.3 0.0
29/03:30am 12.7 - 9.7 82 1.5 - - - - - 1005.0 1005.0 0.0
29/03:00am 13.0 - 9.8 81 1.6 - - - - - 1005.6 1005.6 0.0
29/02:30am 13.9 - 9.7 76 2.2 - - - - - 1005.9 1005.9 0.0
29/02:00am 14.3 - 10.1 76 2.2 - - - - - 1006.1 1006.1 0.0
29/01:30am 14.3 - 10.5 78 2.0 - - - - - 1006.8 1006.8 0.0
29/01:00am 14.2 - 10.6 79 1.9 - - - - - 1007.3 1007.3 0.0
29/12:30am 14.5 - 11.1 80 1.8 - - - - - 1008.1 1008.1 0.0
29/12:00am 14.5 - 11.3 81 1.7 - - - - - 1008.7 1008.6 0.0
 
Date/Time
EST
Temp
°C
App
Temp
°C
Dew
Point
°C
Rel
Hum
%
Delta-T
°C
Wind Press
QNH
hPa
Press
MSL
hPa
Rain since
9am
mm
Dir  Spd
km/h
Gust
km/h
Spd
kts
Gust
kts
28/11:30pm 13.9 12.9 10.9 82 1.6 NE 7 7 4 4 1009.1 1009.0 0.0
28/11:00pm 13.7 12.7 10.9 83 1.5 NE 7 7 4 4 1009.7 1009.6 0.0
28/10:30pm 11.8 11.8 9.9 88 1.0 CALM 0 2 0 1 1010.1 1010.0 0.0
28/10:00pm 11.8 11.7 9.5 86 1.2 CALM 0 0 0 0 1010.5 1010.4 0.0
28/09:30pm 12.9 12.9 9.9 82 1.5 CALM 0 6 0 3 1010.6 1010.5 0.0
28/09:00pm 14.0 12.5 10.4 79 1.9 NNE 9 11 5 6 1011.0 1010.9 0.0
28/08:30pm 14.8 13.2 10.2 74 2.4 NE 9 11 5 6 1011.1 1011.0 0.0
28/08:00pm 14.9 13.2 9.7 71 2.7 NE 9 11 5 6 1011.3 1011.2 0.0
28/07:30pm 15.4 13.2 9.3 67 3.1 ENE 11 15 6 8 1010.9 1010.8 0.0
28/07:00pm 15.8 13.7 8.3 61 3.8 ENE 9 11 5 6 1011.0 1010.9 0.0
28/06:30pm 16.4 14.3 8.1 58 4.2 ENE 9 13 5 7 1010.9 1010.8 0.0
28/06:00pm 17.1 14.2 8.0 55 4.6 ENE 13 15 7 8 1010.5 1010.4 0.0
28/05:30pm 17.9 14.5 7.6 51 5.2 ENE 15 19 8 10 1010.4 1010.3 0.0
28/05:00pm 18.4 14.3 7.8 50 5.4 E 19 26 10 14 1010.3 1010.2 0.0
28/04:30pm 18.6 13.9 7.7 49 5.5 E 22 30 12 16 1010.3 1010.2 0.0
28/04:00pm 18.7 14.4 7.8 49 5.6 ESE 20 26 11 14 1010.5 1010.4 0.0
28/03:30pm 18.9 14.6 8.0 49 5.6 ESE 20 26 11 14 1010.6 1010.5 0.0
28/03:00pm 18.9 14.3 8.3 50 5.5 SE 22 30 12 16 1010.9 1010.8 0.0
28/02:30pm 19.2 14.5 7.6 47 5.9 SE 22 28 12 15 1011.4 1011.3 0.0
28/02:00pm 19.3 14.1 5.4 40 6.8 SE 22 28 12 15 1011.7 1011.6 0.0
28/01:30pm 19.8 15.4 7.2 44 6.4 SE 20 28 11 15 1012.2 1012.1 0.0
28/01:00pm 19.0 15.3 6.2 43 6.3 SSE 15 24 8 13 1012.6 1012.5 0.0
28/12:30pm 19.1 15.5 6.6 44 6.2 SSE 15 22 8 12 1012.8 1012.7 0.0
28/12:00pm 20.1 18.2 6.5 41 6.8 WSW 6 9 3 5 1013.0 1012.9 0.0
28/11:30am 19.5 17.2 5.6 40 6.8 WSW 7 11 4 6 1013.5 1013.4 0.0
28/11:00am 18.7 16.1 6.2 44 6.2 W 9 17 5 9 1013.8 1013.7 0.0
28/10:30am 18.3 14.8 5.5 43 6.2 WNW 13 20 7 11 1014.2 1014.1 0.0
28/10:00am 18.1 15.0 5.7 44 6.0 WNW 11 19 6 10 1014.3 1014.2 0.0

Latest Capital City Observations: Canberra | Sydney | Melbourne | Brisbane | Adelaide | Perth | Hobart | Darwin

Other Formats:

Comma delimited format used in spreadsheet applications
http://www.bom.gov.au/fwo/IDN60901/IDN60901.94776.axf

JavaScript Object Notation format (JSON) in row-major order
http://www.bom.gov.au/fwo/IDN60901/IDN60901.94776.json